ENZV/SVG METAR and TAF weather

Enter ICAO airport designator
Station Type Date Time Source
ENZV METAR 2019/10/21 22:50 UTC NOAA

ENZV 212250Z 21008KT 9999 BKN030 09/04 Q1017


Station Type Date Time Source
ENZV Decoded METAR 2019/10/21 22:50 UTC NOAA

Stavanger / Sola, Norway (ENZV) 58-53N 005-38E 9M
Oct 21, 2019 - 06:50 PM EDT / 2019.10.21 2250 UTC
Wind: from the SSW (210 degrees) at 9 MPH (8 KT):0
Visibility: greater than 7 mile(s):0
Sky conditions: mostly cloudy
Temperature: 48 F (9 C)
Dew Point: 39 F (4 C)
Relative Humidity: 70%
Pressure (altimeter): 30.03 in. Hg (1017 hPa)
ob: ENZV 212250Z 21008KT 9999 BKN030 09/04 Q1017
cycle: 23

Station Type Date Time Source
ENZV TAF 2019/10/21 18:57 UTC NOAA

TAF ENZV 211700Z 2118/2218 17005KT 9999 FEW010 BKN035
BECMG 2201/2203 23012KT

Example: see airport list